createdAt,value
2023-04-09T00:00:57.847Z,31.07
2023-04-09T00:01:57.918Z,31.07
2023-04-09T00:02:57.988Z,31.06
2023-04-09T00:03:58.089Z,31.06
2023-04-09T00:04:58.005Z,31.06
2023-04-09T00:05:58.038Z,31.06
2023-04-09T00:06:58.081Z,31.07
2023-04-09T00:07:58.118Z,31.08
2023-04-09T00:08:58.166Z,31.07
2023-04-09T00:09:58.197Z,31.07
2023-04-09T00:10:58.245Z,31.08
2023-04-09T00:11:58.300Z,31.06
2023-04-09T00:12:58.332Z,31.07
2023-04-09T00:13:58.389Z,31.08
2023-04-09T00:14:58.418Z,31.06
2023-04-09T00:15:58.478Z,31.05
2023-04-09T00:16:58.485Z,31.06
2023-04-09T00:17:58.601Z,31.06
2023-04-09T00:18:58.581Z,31.07
2023-04-09T00:19:58.621Z,31.06
2023-04-09T00:20:58.700Z,31.06
2023-04-09T00:21:58.698Z,31.07
2023-04-09T00:22:58.733Z,31.06
2023-04-09T00:23:58.775Z,31.05
2023-04-09T00:24:58.815Z,31.06
2023-04-09T00:25:58.862Z,31.08
2023-04-09T00:26:58.902Z,31.08
2023-04-09T00:27:58.931Z,31.09
2023-04-09T00:28:58.982Z,31.07
2023-04-09T00:29:59.013Z,31.06
2023-04-09T00:30:59.052Z,31.07
2023-04-09T00:31:59.141Z,31.06
2023-04-09T00:32:59.169Z,31.08
2023-04-09T00:33:59.187Z,31.07
2023-04-09T00:34:59.221Z,31.08
2023-04-09T00:35:59.347Z,31.06
2023-04-09T00:36:59.312Z,31.05
2023-04-09T00:37:59.355Z,31.05
2023-04-09T00:38:59.386Z,31.05
2023-04-09T00:39:59.431Z,31.05
2023-04-09T00:40:59.471Z,31.06
2023-04-09T00:41:59.515Z,31.08
2023-04-09T00:42:59.576Z,31.07
2023-04-09T00:43:59.588Z,31.06
2023-04-09T00:44:59.631Z,31.05
2023-04-09T00:45:59.718Z,31.06
2023-04-09T00:46:59.702Z,31.06
2023-04-09T00:47:59.793Z,31.05
2023-04-09T00:48:59.790Z,31.04
2023-04-09T00:49:59.818Z,31.03
2023-04-09T00:50:59.865Z,31.04
2023-04-09T00:51:59.904Z,31.04
2023-04-09T00:52:59.967Z,31.03
2023-04-09T00:54:00.004Z,31.02
2023-04-09T00:55:00.044Z,31.02
2023-04-09T00:56:00.109Z,31.02
2023-04-09T00:57:00.121Z,31.03
2023-04-09T00:58:00.205Z,31.02
2023-04-09T00:59:00.211Z,31.02
2023-04-09T01:00:00.262Z,31.00
2023-04-09T01:01:00.318Z,31.00
2023-04-09T01:02:00.408Z,31.01
2023-04-09T01:03:00.491Z,30.98
2023-04-09T01:04:00.408Z,30.99
2023-04-09T01:05:00.446Z,30.98
2023-04-09T01:06:00.486Z,30.99
2023-04-09T01:07:00.520Z,30.96
2023-04-09T01:08:00.560Z,31.00
2023-04-09T01:09:00.597Z,30.98
2023-04-09T01:10:00.653Z,31.01
2023-04-09T01:11:00.660Z,31.01
2023-04-09T01:12:00.693Z,31.02
2023-04-09T01:13:00.729Z,31.00
2023-04-09T01:14:00.785Z,31.04
2023-04-09T01:15:01.079Z,31.03
2023-04-09T01:16:00.838Z,31.03
2023-04-09T01:17:00.904Z,31.03
2023-04-09T01:18:01.003Z,31.05
2023-04-09T01:19:00.974Z,31.06
2023-04-09T01:20:00.997Z,31.04
2023-04-09T01:21:01.034Z,31.03
2023-04-09T01:22:01.061Z,31.06
2023-04-09T01:23:01.108Z,31.05
2023-04-09T01:24:01.143Z,31.06
2023-04-09T01:25:01.178Z,31.05
2023-04-09T01:26:01.224Z,31.05
2023-04-09T01:27:01.255Z,31.04
2023-04-09T01:28:01.353Z,31.05
2023-04-09T01:29:01.375Z,31.03
2023-04-09T01:30:01.406Z,31.06
2023-04-09T01:31:01.438Z,31.05
2023-04-09T01:32:01.498Z,31.02
2023-04-09T01:33:01.489Z,31.04
2023-04-09T01:34:01.518Z,31.06
2023-04-09T01:35:01.561Z,31.05
2023-04-09T01:36:01.634Z,31.06
2023-04-09T01:37:01.627Z,31.02
2023-04-09T01:38:01.658Z,31.01
2023-04-09T01:39:01.696Z,31.01
2023-04-09T01:40:01.772Z,31.01
2023-04-09T01:41:01.836Z,31.00
2023-04-09T01:42:01.826Z,31.02
2023-04-09T01:43:01.866Z,31.03
2023-04-09T01:44:01.949Z,31.04
2023-04-09T01:45:01.951Z,31.03
2023-04-09T01:46:02.046Z,31.03
2023-04-09T01:47:02.009Z,31.03
2023-04-09T01:48:02.110Z,31.01
2023-04-09T01:49:02.093Z,31.03
2023-04-09T01:50:02.129Z,31.03
2023-04-09T01:51:02.243Z,31.03
2023-04-09T01:52:02.206Z,31.02
2023-04-09T01:53:02.280Z,31.05
2023-04-09T01:54:02.282Z,31.03
2023-04-09T01:55:02.316Z,31.04
2023-04-09T01:56:02.353Z,31.04
2023-04-09T01:57:02.388Z,31.04
2023-04-09T01:58:02.436Z,31.04
2023-04-09T01:59:02.466Z,31.06
2023-04-09T02:00:02.547Z,31.04
2023-04-09T02:01:02.581Z,31.07
2023-04-09T02:02:02.686Z,31.05
2023-04-09T02:03:02.734Z,31.07
2023-04-09T02:04:02.742Z,31.04
2023-04-09T02:05:02.709Z,31.05
2023-04-09T02:06:02.735Z,31.03
2023-04-09T02:07:02.763Z,31.05
2023-04-09T02:08:02.837Z,31.05
2023-04-09T02:09:02.833Z,31.07
2023-04-09T02:10:02.875Z,31.05
2023-04-09T02:11:02.917Z,31.05
2023-04-09T02:12:02.996Z,31.04
2023-04-09T02:13:02.982Z,31.03
2023-04-09T02:14:03.025Z,31.03
2023-04-09T02:15:03.064Z,31.04
2023-04-09T02:16:03.142Z,31.03
2023-04-09T02:17:03.140Z,31.03
2023-04-09T02:18:03.264Z,31.02
2023-04-09T02:19:03.220Z,31.02
2023-04-09T02:20:03.247Z,31.05
2023-04-09T02:21:03.291Z,31.02
2023-04-09T02:22:03.319Z,31.03
2023-04-09T02:23:03.362Z,31.05
2023-04-09T02:24:03.425Z,31.04
2023-04-09T02:25:03.430Z,31.04
2023-04-09T02:26:03.486Z,31.05
2023-04-09T02:27:03.508Z,31.03
2023-04-09T02:28:03.546Z,31.05
2023-04-09T02:29:03.586Z,31.05
2023-04-09T02:30:03.619Z,31.04
2023-04-09T02:31:03.693Z,31.03
2023-04-09T02:32:03.703Z,31.04
2023-04-09T02:33:03.737Z,31.04
2023-04-09T02:34:03.779Z,31.07
2023-04-09T02:35:03.804Z,31.05
2023-04-09T02:36:03.897Z,31.03
2023-04-09T02:37:03.887Z,31.06
2023-04-09T02:38:03.933Z,31.06
2023-04-09T02:39:03.962Z,31.04
2023-04-09T02:40:03.991Z,31.03
2023-04-09T02:41:04.035Z,31.06
2023-04-09T02:42:04.069Z,31.07
2023-04-09T02:43:04.110Z,31.05
2023-04-09T02:44:04.145Z,31.04
2023-04-09T02:45:04.183Z,31.05
2023-04-09T02:46:04.252Z,31.05
2023-04-09T02:47:04.263Z,31.03
2023-04-09T02:48:04.314Z,31.04
2023-04-09T02:49:04.343Z,31.06
2023-04-09T02:50:04.375Z,31.03
2023-04-09T02:51:04.414Z,31.06
2023-04-09T02:52:04.451Z,31.04
2023-04-09T02:53:04.497Z,31.05
2023-04-09T02:54:04.536Z,31.05
2023-04-09T02:55:04.565Z,31.07
2023-04-09T02:56:04.599Z,31.05
2023-04-09T02:57:04.639Z,31.04
2023-04-09T02:58:04.670Z,31.03
2023-04-09T02:59:04.701Z,31.04
2023-04-09T03:00:04.733Z,31.06
2023-04-09T03:01:04.765Z,31.03
2023-04-09T03:02:04.875Z,31.06
2023-04-09T03:03:05.048Z,31.05
2023-04-09T03:04:04.960Z,31.07
2023-04-09T03:05:04.955Z,31.05
2023-04-09T03:06:04.944Z,31.04
2023-04-09T03:07:04.968Z,31.07
2023-04-09T03:08:05.010Z,31.06
2023-04-09T03:09:05.074Z,31.05
2023-04-09T03:10:05.069Z,31.05
2023-04-09T03:11:05.120Z,31.04
2023-04-09T03:12:05.153Z,31.06
2023-04-09T03:13:05.184Z,31.04
2023-04-09T03:14:05.232Z,31.05
2023-04-09T03:15:05.255Z,31.05
2023-04-09T03:16:05.321Z,31.03
2023-04-09T03:17:05.319Z,31.04
2023-04-09T03:18:05.448Z,31.05
2023-04-09T03:19:05.387Z,31.06
2023-04-09T03:20:05.410Z,31.04
2023-04-09T03:21:05.441Z,31.04
2023-04-09T03:22:05.496Z,31.04
2023-04-09T03:23:05.527Z,31.04
2023-04-09T03:24:05.537Z,31.05
2023-04-09T03:25:05.582Z,31.03
2023-04-09T03:26:05.606Z,31.02
2023-04-09T03:27:05.644Z,31.04
2023-04-09T03:28:05.668Z,31.06
2023-04-09T03:29:05.702Z,31.04
2023-04-09T03:30:05.730Z,31.05
2023-04-09T03:31:05.762Z,31.02
2023-04-09T03:32:05.790Z,31.05
2023-04-09T03:33:05.889Z,31.03
2023-04-09T03:34:05.869Z,31.03
2023-04-09T03:35:05.886Z,31.03
2023-04-09T03:36:05.950Z,31.04
2023-04-09T03:37:05.957Z,31.04
2023-04-09T03:38:06.000Z,31.04
2023-04-09T03:39:06.032Z,31.05
2023-04-09T03:40:06.062Z,31.04
2023-04-09T03:41:06.088Z,31.05
2023-04-09T03:42:06.142Z,31.05
2023-04-09T03:43:06.165Z,31.01
2023-04-09T03:44:06.200Z,31.05
2023-04-09T03:45:06.236Z,31.05
2023-04-09T03:46:06.293Z,31.05
2023-04-09T03:47:06.304Z,31.03
2023-04-09T03:48:06.349Z,31.03
2023-04-09T03:49:06.391Z,31.04
2023-04-09T03:50:06.406Z,31.06
2023-04-09T03:51:06.447Z,31.04
2023-04-09T03:52:06.478Z,31.05
2023-04-09T03:53:06.519Z,31.04
2023-04-09T03:54:06.565Z,31.07
2023-04-09T03:55:06.584Z,31.08
2023-04-09T03:56:06.620Z,31.05
2023-04-09T03:57:06.654Z,31.06
2023-04-09T03:58:06.693Z,31.05
2023-04-09T03:59:06.746Z,31.05
2023-04-09T04:00:06.757Z,31.07
2023-04-09T04:01:06.796Z,31.06
2023-04-09T04:02:06.883Z,31.05
2023-04-09T04:03:07.120Z,31.04
2023-04-09T04:04:06.925Z,31.04
2023-04-09T04:05:06.932Z,31.06
2023-04-09T04:06:06.976Z,31.05
2023-04-09T04:07:07.001Z,31.05
2023-04-09T04:08:07.029Z,31.04
2023-04-09T04:09:07.069Z,31.07
2023-04-09T04:10:07.102Z,31.07
2023-04-09T04:11:07.140Z,31.06
2023-04-09T04:12:07.175Z,31.06
2023-04-09T04:13:07.263Z,31.07
2023-04-09T04:14:07.249Z,31.08
2023-04-09T04:15:07.283Z,31.08
2023-04-09T04:16:07.387Z,31.07
2023-04-09T04:17:07.363Z,31.07
2023-04-09T04:18:07.407Z,31.04
2023-04-09T04:19:07.448Z,31.06
2023-04-09T04:20:07.485Z,31.06
2023-04-09T04:21:07.526Z,31.05
2023-04-09T04:22:07.554Z,31.06
2023-04-09T04:23:07.605Z,31.06
2023-04-09T04:24:07.628Z,31.07
2023-04-09T04:25:07.721Z,31.06
2023-04-09T04:26:07.702Z,31.07
2023-04-09T04:27:07.768Z,31.05
2023-04-09T04:28:07.777Z,31.06
2023-04-09T04:29:07.814Z,31.03
2023-04-09T04:30:07.854Z,31.04
2023-04-09T04:31:07.890Z,31.06
2023-04-09T04:32:07.919Z,31.07
2023-04-09T04:33:07.956Z,31.04
2023-04-09T04:34:07.989Z,31.07
2023-04-09T04:35:08.022Z,31.08
2023-04-09T04:36:08.057Z,31.06
2023-04-09T04:37:08.100Z,31.08
2023-04-09T04:38:08.132Z,31.07
2023-04-09T04:39:08.169Z,31.06
2023-04-09T04:40:08.204Z,31.06
2023-04-09T04:41:08.257Z,31.06
2023-04-09T04:42:08.295Z,31.06
2023-04-09T04:43:08.324Z,31.06
2023-04-09T04:44:08.379Z,31.03
2023-04-09T04:45:08.395Z,31.05
2023-04-09T04:46:08.433Z,31.06
2023-04-09T04:47:08.462Z,31.04
2023-04-09T04:48:08.479Z,31.06
2023-04-09T04:49:08.524Z,31.06
2023-04-09T04:50:08.553Z,31.05
2023-04-09T04:51:08.592Z,31.06
2023-04-09T04:52:08.627Z,31.05
2023-04-09T04:53:08.666Z,31.09
2023-04-09T04:54:08.702Z,31.08
2023-04-09T04:55:08.744Z,31.05
2023-04-09T04:56:08.772Z,31.08
2023-04-09T04:57:08.816Z,31.07
2023-04-09T04:58:08.858Z,31.07
2023-04-09T04:59:08.893Z,31.07
2023-04-09T05:00:08.950Z,31.06
2023-04-09T05:01:09.004Z,31.05
2023-04-09T05:02:09.147Z,31.05
2023-04-09T05:03:09.129Z,31.05
2023-04-09T05:04:09.087Z,31.03
2023-04-09T05:05:09.128Z,31.05
2023-04-09T05:06:09.167Z,31.07
2023-04-09T05:07:09.302Z,31.05
2023-04-09T05:08:09.258Z,31.05
2023-04-09T05:09:09.285Z,31.05
2023-04-09T05:10:09.319Z,31.07
2023-04-09T05:11:09.359Z,31.05
2023-04-09T05:12:09.392Z,31.05
2023-04-09T05:13:09.432Z,31.04
2023-04-09T05:14:09.471Z,31.04
2023-04-09T05:15:09.510Z,31.04
2023-04-09T05:16:09.562Z,31.04
2023-04-09T05:17:09.570Z,31.04
2023-04-09T05:18:09.603Z,31.04
2023-04-09T05:19:09.648Z,31.04
2023-04-09T05:20:09.698Z,31.04
2023-04-09T05:21:09.721Z,31.02
2023-04-09T05:22:09.766Z,31.00
2023-04-09T05:23:09.790Z,31.01
2023-04-09T05:24:09.818Z,31.02
2023-04-09T05:25:09.863Z,31.04
2023-04-09T05:26:09.884Z,31.03
2023-04-09T05:27:09.906Z,31.03
2023-04-09T05:28:09.934Z,31.01
2023-04-09T05:29:09.984Z,31.04
2023-04-09T05:30:10.009Z,31.02
2023-04-09T05:31:10.067Z,31.04
2023-04-09T05:32:10.069Z,31.05
2023-04-09T05:33:10.097Z,31.03
2023-04-09T05:34:10.136Z,31.02
2023-04-09T05:35:10.173Z,31.02
2023-04-09T05:36:10.252Z,31.02
2023-04-09T05:37:10.274Z,31.01
2023-04-09T05:38:10.270Z,31.03
2023-04-09T05:39:10.308Z,31.02
2023-04-09T05:40:10.344Z,31.02
2023-04-09T05:41:10.368Z,31.03
2023-04-09T05:42:10.418Z,31.00
2023-04-09T05:43:10.435Z,30.98
2023-04-09T05:44:10.472Z,31.01
2023-04-09T05:45:10.516Z,30.98
2023-04-09T05:46:10.647Z,31.00
2023-04-09T05:47:10.587Z,31.00
2023-04-09T05:48:10.603Z,31.00
2023-04-09T05:49:10.633Z,31.00
2023-04-09T05:50:10.658Z,31.00
2023-04-09T05:51:10.685Z,30.98
2023-04-09T05:52:10.736Z,30.96
2023-04-09T05:53:10.754Z,30.98
2023-04-09T05:54:10.791Z,30.97
2023-04-09T05:55:10.822Z,30.98
2023-04-09T05:56:10.853Z,30.97
2023-04-09T05:57:10.897Z,30.95
2023-04-09T05:58:10.910Z,30.95
2023-04-09T05:59:10.950Z,30.96
2023-04-09T06:00:10.996Z,30.96
2023-04-09T06:01:11.018Z,30.94
2023-04-09T06:02:11.149Z,30.96
2023-04-09T06:03:11.157Z,30.93
2023-04-09T06:04:11.221Z,30.93
2023-04-09T06:05:11.143Z,30.95
2023-04-09T06:06:11.177Z,30.96
2023-04-09T06:07:11.208Z,30.94
2023-04-09T06:08:11.241Z,30.95
2023-04-09T06:09:11.278Z,30.92
2023-04-09T06:10:11.298Z,30.94
2023-04-09T06:11:11.353Z,30.93
2023-04-09T06:12:11.384Z,30.94
2023-04-09T06:13:11.388Z,30.92
2023-04-09T06:14:11.419Z,30.95
2023-04-09T06:15:11.461Z,30.93
2023-04-09T06:16:11.553Z,30.91
2023-04-09T06:17:11.592Z,30.91
2023-04-09T06:18:11.544Z,30.92
2023-04-09T06:19:11.565Z,30.92
2023-04-09T06:20:11.602Z,30.91
2023-04-09T06:21:11.635Z,30.91
2023-04-09T06:22:11.654Z,30.91
2023-04-09T06:23:11.689Z,30.93
2023-04-09T06:24:11.714Z,30.89
2023-04-09T06:25:11.737Z,30.90
2023-04-09T06:26:11.770Z,30.89
2023-04-09T06:27:11.801Z,30.91
2023-04-09T06:28:11.828Z,30.90
2023-04-09T06:29:11.857Z,30.90
2023-04-09T06:30:11.895Z,30.89
2023-04-09T06:31:11.920Z,30.88
2023-04-09T06:32:11.937Z,30.89
2023-04-09T06:33:11.995Z,30.87
2023-04-09T06:34:11.996Z,30.88
2023-04-09T06:35:12.018Z,30.90
2023-04-09T06:36:12.090Z,30.88
2023-04-09T06:37:12.073Z,30.87
2023-04-09T06:38:12.101Z,30.87
2023-04-09T06:39:12.121Z,30.87
2023-04-09T06:40:12.151Z,30.86
2023-04-09T06:41:12.175Z,30.87
2023-04-09T06:42:12.196Z,30.85
2023-04-09T06:43:12.227Z,30.87
2023-04-09T06:44:12.247Z,30.87
2023-04-09T06:45:12.272Z,30.87
2023-04-09T06:46:12.321Z,30.88
2023-04-09T06:47:12.325Z,30.88
2023-04-09T06:48:12.341Z,30.86
2023-04-09T06:49:12.370Z,30.86
2023-04-09T06:50:12.384Z,30.87
2023-04-09T06:51:12.406Z,30.87
2023-04-09T06:52:12.436Z,30.86
2023-04-09T06:53:12.479Z,30.85
2023-04-09T06:54:12.485Z,30.85
2023-04-09T06:55:12.503Z,30.85
2023-04-09T06:56:12.526Z,30.86
2023-04-09T06:57:12.560Z,30.85
2023-04-09T06:58:12.564Z,30.84
2023-04-09T06:59:12.582Z,30.83
2023-04-09T07:00:12.598Z,30.84
2023-04-09T07:01:13.576Z,30.85
2023-04-09T07:02:12.619Z,30.83
2023-04-09T07:03:12.592Z,30.83
2023-04-09T07:04:12.658Z,30.81
2023-04-09T07:05:12.502Z,30.82
2023-04-09T07:06:12.492Z,30.82
2023-04-09T07:07:12.461Z,30.82
2023-04-09T07:08:12.446Z,30.82
2023-04-09T07:09:12.431Z,30.81
2023-04-09T07:10:12.419Z,30.80
2023-04-09T07:11:12.387Z,30.82
2023-04-09T07:12:12.356Z,30.82
2023-04-09T07:13:12.349Z,30.80
2023-04-09T07:14:12.323Z,30.82
2023-04-09T07:15:12.294Z,30.79
2023-04-09T07:16:12.293Z,30.79
2023-04-09T07:17:12.282Z,30.78
2023-04-09T07:18:12.317Z,30.78
2023-04-09T07:19:12.337Z,30.78
2023-04-09T07:20:12.360Z,30.79
2023-04-09T07:21:12.373Z,30.78
2023-04-09T07:22:12.401Z,30.77
2023-04-09T07:23:12.434Z,30.79
2023-04-09T07:24:12.438Z,30.77
2023-04-09T07:25:12.464Z,30.78
2023-04-09T07:26:12.482Z,30.76
2023-04-09T07:27:12.507Z,30.77
2023-04-09T07:28:12.530Z,30.77
2023-04-09T07:29:12.552Z,30.78
2023-04-09T07:30:12.564Z,30.77
2023-04-09T07:31:12.636Z,30.75
2023-04-09T07:32:12.599Z,30.76
2023-04-09T07:33:12.660Z,30.76
2023-04-09T07:34:12.634Z,30.77
2023-04-09T07:35:12.665Z,30.75
2023-04-09T07:36:12.730Z,30.75
2023-04-09T07:37:12.681Z,30.76
2023-04-09T07:38:12.691Z,30.76
2023-04-09T07:39:12.712Z,30.76
2023-04-09T07:40:12.750Z,30.76
2023-04-09T07:41:12.739Z,30.76
2023-04-09T07:42:12.755Z,30.74
2023-04-09T07:43:12.771Z,30.75
2023-04-09T07:44:12.791Z,30.76
2023-04-09T07:45:12.820Z,30.77
2023-04-09T07:46:12.838Z,30.76
2023-04-09T07:47:12.878Z,30.75
2023-04-09T07:48:12.856Z,30.76
2023-04-09T07:49:12.873Z,30.75
2023-04-09T07:50:12.885Z,30.74
2023-04-09T07:51:13.204Z,30.73
2023-04-09T07:52:12.921Z,30.75
2023-04-09T07:53:12.959Z,30.74
2023-04-09T07:54:12.954Z,30.73
2023-04-09T07:55:12.968Z,30.72
2023-04-09T07:56:12.987Z,30.72
2023-04-09T07:57:12.993Z,30.73
2023-04-09T07:58:13.077Z,30.74
2023-04-09T07:59:13.031Z,30.71
2023-04-09T08:00:13.055Z,30.73
2023-04-09T08:01:13.063Z,30.73
2023-04-09T08:02:15.050Z,30.72
2023-04-09T08:03:13.252Z,30.71
2023-04-09T08:04:13.380Z,30.72
2023-04-09T08:05:13.183Z,30.71
2023-04-09T08:06:13.108Z,30.71
2023-04-09T08:07:13.118Z,30.69
2023-04-09T08:08:13.143Z,30.69
2023-04-09T08:09:13.154Z,30.71
2023-04-09T08:10:13.168Z,30.71
2023-04-09T08:11:13.172Z,30.75
2023-04-09T08:12:13.185Z,30.76
2023-04-09T08:13:13.198Z,30.73
2023-04-09T08:14:13.213Z,30.73
2023-04-09T08:15:13.227Z,30.74
2023-04-09T08:16:13.256Z,30.74
2023-04-09T08:17:13.244Z,30.73
2023-04-09T08:18:13.254Z,30.75
2023-04-09T08:19:13.275Z,30.73
2023-04-09T08:20:13.281Z,30.74
2023-04-09T08:21:13.292Z,30.73
2023-04-09T08:22:13.330Z,30.73
2023-04-09T08:23:13.325Z,30.72
2023-04-09T08:24:13.356Z,30.72
2023-04-09T08:25:13.350Z,30.71
2023-04-09T08:26:13.352Z,30.70
2023-04-09T08:27:13.387Z,30.70
2023-04-09T08:28:13.360Z,30.70
2023-04-09T08:29:13.373Z,30.69
2023-04-09T08:30:13.413Z,30.66
2023-04-09T08:31:13.406Z,30.65
2023-04-09T08:32:13.576Z,30.62
2023-04-09T08:33:13.410Z,30.63
2023-04-09T08:34:13.425Z,30.63
2023-04-09T08:35:13.445Z,30.61
2023-04-09T08:36:13.457Z,30.60
2023-04-09T08:37:13.456Z,30.61
2023-04-09T08:38:13.462Z,30.60
2023-04-09T08:39:13.469Z,30.59
2023-04-09T08:40:13.485Z,30.59
2023-04-09T08:41:14.129Z,30.59
2023-04-09T08:42:13.510Z,30.59
2023-04-09T08:43:13.510Z,30.58
2023-04-09T08:44:13.508Z,30.58
2023-04-09T08:45:13.510Z,30.53
2023-04-09T08:46:13.592Z,30.56
2023-04-09T08:47:13.514Z,30.53
2023-04-09T08:48:13.639Z,30.54
2023-04-09T08:49:13.538Z,30.53
2023-04-09T08:50:13.540Z,30.53
2023-04-09T08:51:13.534Z,30.54
2023-04-09T08:52:13.536Z,30.52
2023-04-09T08:53:13.549Z,30.53
2023-04-09T08:54:13.542Z,30.53
2023-04-09T08:55:13.598Z,30.52
2023-04-09T08:56:13.553Z,30.52
2023-04-09T08:57:13.551Z,30.52
2023-04-09T08:58:13.556Z,30.51
2023-04-09T08:59:13.564Z,30.50
2023-04-09T09:00:13.554Z,30.53
2023-04-09T09:01:13.699Z,30.49
2023-04-09T09:02:13.713Z,30.53
2023-04-09T09:03:13.614Z,30.52
2023-04-09T09:04:13.589Z,30.53
2023-04-09T09:05:13.551Z,30.51
2023-04-09T09:06:13.553Z,30.52
2023-04-09T09:07:13.563Z,30.52
2023-04-09T09:08:13.550Z,30.52
2023-04-09T09:09:13.565Z,30.50
2023-04-09T09:10:13.554Z,30.51
2023-04-09T09:11:13.547Z,30.50
2023-04-09T09:12:13.546Z,30.50
2023-04-09T09:13:13.549Z,30.49
2023-04-09T09:14:13.558Z,30.51
2023-04-09T09:15:13.556Z,30.50
2023-04-09T09:16:13.617Z,30.48
2023-04-09T09:17:13.693Z,30.48
2023-04-09T09:18:13.561Z,30.51
2023-04-09T09:19:13.561Z,30.51
2023-04-09T09:20:13.554Z,30.50
2023-04-09T09:21:13.567Z,30.49
2023-04-09T09:22:13.558Z,30.50
2023-04-09T09:23:13.557Z,30.49
2023-04-09T09:24:13.557Z,30.51
2023-04-09T09:25:13.572Z,30.51
2023-04-09T09:26:13.570Z,30.50
2023-04-09T09:27:13.564Z,30.53
2023-04-09T09:28:13.591Z,30.53
2023-04-09T09:29:13.570Z,30.51
2023-04-09T09:30:13.569Z,30.53
2023-04-09T09:31:13.639Z,30.51
2023-04-09T09:32:13.583Z,30.49
2023-04-09T09:33:13.570Z,30.49
2023-04-09T09:34:13.564Z,30.47
2023-04-09T09:35:13.573Z,30.48
2023-04-09T09:36:13.609Z,30.47
2023-04-09T09:37:13.566Z,30.47
2023-04-09T09:38:13.564Z,30.48
2023-04-09T09:39:13.563Z,30.48
2023-04-09T09:40:13.556Z,30.51
2023-04-09T09:41:13.549Z,30.47
2023-04-09T09:42:13.549Z,30.46
2023-04-09T09:43:14.640Z,30.47
2023-04-09T09:44:13.547Z,30.47
2023-04-09T09:45:13.547Z,30.46
2023-04-09T09:46:13.608Z,30.48
2023-04-09T09:47:13.558Z,30.48
2023-04-09T09:48:13.536Z,30.45
2023-04-09T09:49:13.526Z,30.48
2023-04-09T09:50:13.537Z,30.45
2023-04-09T09:51:13.532Z,30.44
2023-04-09T09:52:13.526Z,30.46
2023-04-09T09:53:13.506Z,30.45
2023-04-09T09:54:13.517Z,30.45
2023-04-09T09:55:13.520Z,30.44
2023-04-09T09:56:13.512Z,30.43
2023-04-09T09:57:13.549Z,30.45
2023-04-09T09:58:13.502Z,30.46
2023-04-09T09:59:13.508Z,30.42
2023-04-09T10:00:13.504Z,30.44
2023-04-09T10:01:13.522Z,30.44
2023-04-09T10:02:13.564Z,30.42
2023-04-09T10:03:13.595Z,30.43
2023-04-09T10:04:13.630Z,30.42
2023-04-09T10:05:13.481Z,30.42
2023-04-09T10:06:13.472Z,30.43
2023-04-09T10:07:13.456Z,30.45
2023-04-09T10:08:13.458Z,30.41
2023-04-09T10:09:13.446Z,30.43
2023-04-09T10:10:13.449Z,30.43
2023-04-09T10:11:13.457Z,30.40
2023-04-09T10:12:13.429Z,30.39
2023-04-09T10:13:13.421Z,30.38
2023-04-09T10:14:13.429Z,30.39
2023-04-09T10:15:13.432Z,30.37
2023-04-09T10:16:13.520Z,30.38
2023-04-09T10:17:13.432Z,30.39
2023-04-09T10:18:13.427Z,30.37
2023-04-09T10:19:13.421Z,30.35
2023-04-09T10:20:13.412Z,30.36
2023-04-09T10:21:13.406Z,30.38
2023-04-09T10:22:13.453Z,30.37
2023-04-09T10:23:13.396Z,30.36
2023-04-09T10:24:13.424Z,30.37
2023-04-09T10:25:13.405Z,30.36
2023-04-09T10:26:13.377Z,30.38
2023-04-09T10:27:15.686Z,30.34
2023-04-09T10:28:13.560Z,30.34
2023-04-09T10:29:13.577Z,30.36
2023-04-09T10:30:13.569Z,30.33
2023-04-09T10:31:13.586Z,30.33
2023-04-09T10:32:13.567Z,30.34
2023-04-09T10:33:13.553Z,30.32
2023-04-09T10:34:13.550Z,30.31
2023-04-09T10:35:13.562Z,30.30
2023-04-09T10:36:13.587Z,30.33
2023-04-09T10:37:13.530Z,30.32
2023-04-09T10:38:13.531Z,30.32
2023-04-09T10:39:13.539Z,30.33
2023-04-09T10:40:13.528Z,30.31
2023-04-09T10:41:13.523Z,30.31
2023-04-09T10:42:13.511Z,30.33
2023-04-09T10:43:13.498Z,30.32
2023-04-09T10:44:13.493Z,30.31
2023-04-09T10:45:13.501Z,30.31
2023-04-09T10:46:13.507Z,30.32
2023-04-09T10:47:13.474Z,30.33
2023-04-09T10:48:13.487Z,30.31
2023-04-09T10:49:13.469Z,30.32
2023-04-09T10:50:13.472Z,30.30
2023-04-09T10:51:13.446Z,30.30
2023-04-09T10:52:13.439Z,30.32
2023-04-09T10:53:13.432Z,30.33
2023-04-09T10:54:13.417Z,30.32
2023-04-09T10:55:13.415Z,30.30
2023-04-09T10:56:13.402Z,30.33
2023-04-09T10:57:13.397Z,30.34
2023-04-09T10:58:14.033Z,30.35
2023-04-09T10:59:13.388Z,30.34
2023-04-09T11:00:13.453Z,30.31
2023-04-09T11:01:13.380Z,30.32
2023-04-09T11:02:13.468Z,30.33
2023-04-09T11:03:13.514Z,30.32
2023-04-09T11:04:13.390Z,30.33
2023-04-09T11:05:13.360Z,30.33
2023-04-09T11:06:13.365Z,30.36
2023-04-09T11:07:13.351Z,30.35
2023-04-09T11:08:13.354Z,30.36
2023-04-09T11:09:13.371Z,30.36
2023-04-09T11:10:13.395Z,30.38
2023-04-09T11:11:13.352Z,30.38
2023-04-09T11:12:13.321Z,30.37
2023-04-09T11:13:13.391Z,30.38
2023-04-09T11:14:13.311Z,30.41
2023-04-09T11:15:13.305Z,30.40
2023-04-09T11:16:13.358Z,30.40
2023-04-09T11:17:14.295Z,30.39
2023-04-09T11:18:13.258Z,30.42
2023-04-09T11:19:13.220Z,30.43
2023-04-09T11:20:13.209Z,30.40
2023-04-09T11:21:13.186Z,30.42
2023-04-09T11:22:13.170Z,30.39
2023-04-09T11:23:13.126Z,30.42
2023-04-09T11:24:13.094Z,30.41
2023-04-09T11:25:13.063Z,30.42
2023-04-09T11:26:13.029Z,30.40
2023-04-09T11:27:12.996Z,30.43
2023-04-09T11:28:12.963Z,30.43
2023-04-09T11:29:12.956Z,30.42
2023-04-09T11:30:12.904Z,30.44
2023-04-09T11:31:12.929Z,30.42
2023-04-09T11:32:12.839Z,30.41
2023-04-09T11:33:12.812Z,30.43
2023-04-09T11:34:12.798Z,30.44
2023-04-09T11:35:12.757Z,30.42
2023-04-09T11:36:12.805Z,30.44
2023-04-09T11:37:12.700Z,30.46
2023-04-09T11:38:12.691Z,30.42
2023-04-09T11:39:12.662Z,30.44
2023-04-09T11:40:12.631Z,30.43
2023-04-09T11:41:12.652Z,30.43
2023-04-09T11:42:12.625Z,30.43
2023-04-09T11:43:12.631Z,30.43
2023-04-09T11:44:12.610Z,30.46
2023-04-09T11:45:12.615Z,30.43
2023-04-09T11:46:12.613Z,30.45
2023-04-09T11:47:12.612Z,30.45
2023-04-09T11:48:12.601Z,30.44
2023-04-09T11:49:12.601Z,30.43
2023-04-09T11:50:12.587Z,30.44
2023-04-09T11:51:12.584Z,30.42
2023-04-09T11:52:12.582Z,30.44
2023-04-09T11:53:12.576Z,30.43
2023-04-09T11:54:12.567Z,30.44
2023-04-09T11:55:12.561Z,30.43
2023-04-09T11:56:12.575Z,30.42
2023-04-09T11:57:12.545Z,30.44
2023-04-09T11:58:12.538Z,30.45
2023-04-09T11:59:12.536Z,30.45
2023-04-09T12:00:12.532Z,30.47
2023-04-09T12:01:12.520Z,30.44
2023-04-09T12:02:12.620Z,30.46
2023-04-09T12:03:12.829Z,30.45
2023-04-09T12:04:12.634Z,30.45
2023-04-09T12:05:12.614Z,30.45
2023-04-09T12:06:12.494Z,30.47
2023-04-09T12:07:12.500Z,30.47
2023-04-09T12:08:12.479Z,30.46
2023-04-09T12:09:12.482Z,30.47
2023-04-09T12:10:12.484Z,30.48
2023-04-09T12:11:12.476Z,30.45
2023-04-09T12:12:12.468Z,30.48
2023-04-09T12:13:12.472Z,30.47
2023-04-09T12:14:12.470Z,30.46
2023-04-09T12:15:12.481Z,30.48
2023-04-09T12:16:12.520Z,30.49
2023-04-09T12:17:12.471Z,30.48
2023-04-09T12:18:12.468Z,30.48
2023-04-09T12:19:12.468Z,30.48
2023-04-09T12:20:12.464Z,30.49
2023-04-09T12:21:12.460Z,30.49
2023-04-09T12:22:12.454Z,30.47
2023-04-09T12:23:12.460Z,30.50
2023-04-09T12:24:12.460Z,30.48
2023-04-09T12:25:12.482Z,30.49
2023-04-09T12:26:12.458Z,30.50
2023-04-09T12:27:12.463Z,30.50
2023-04-09T12:28:12.454Z,30.51
2023-04-09T12:29:12.454Z,30.52
2023-04-09T12:30:12.463Z,30.51
2023-04-09T12:31:12.464Z,30.48
2023-04-09T12:32:12.538Z,30.51
2023-04-09T12:33:12.466Z,30.52
2023-04-09T12:34:12.471Z,30.50
2023-04-09T12:35:12.476Z,30.50
2023-04-09T12:36:12.503Z,30.48
2023-04-09T12:37:12.483Z,30.52
2023-04-09T12:38:12.468Z,30.50
2023-04-09T12:39:12.465Z,30.52
2023-04-09T12:40:12.467Z,30.49
2023-04-09T12:41:12.462Z,30.52
2023-04-09T12:42:12.460Z,30.51
2023-04-09T12:43:12.460Z,30.50
2023-04-09T12:44:12.458Z,30.49
2023-04-09T12:45:12.458Z,30.49
2023-04-09T12:46:12.504Z,30.48
2023-04-09T12:47:12.454Z,30.51
2023-04-09T12:48:12.448Z,30.50
2023-04-09T12:49:12.449Z,30.47
2023-04-09T12:50:12.454Z,30.49
2023-04-09T12:51:12.436Z,30.46
2023-04-09T12:52:12.434Z,30.45
2023-04-09T12:53:12.438Z,30.44